sensor_id;sensor_type;location;lat;lon;timestamp;pressure;altitude;pressure_sealevel;temperature;humidity
46009;BME280;39597;51.438;7.006;2022-11-02T00:03:39;100117.34;;;11.85;74.75
46009;BME280;39597;51.438;7.006;2022-11-02T00:06:05;100116.06;;;11.94;74.24
46009;BME280;39597;51.438;7.006;2022-11-02T00:08:40;100117.66;;;11.95;74.29
46009;BME280;39597;51.438;7.006;2022-11-02T00:11:06;100118.69;;;11.91;74.77
46009;BME280;39597;51.438;7.006;2022-11-02T00:13:31;100121.19;;;11.96;74.63
46009;BME280;39597;51.438;7.006;2022-11-02T00:16:00;100131.19;;;11.92;74.57
46009;BME280;39597;51.438;7.006;2022-11-02T00:18:26;100117.34;;;11.85;75.31
46009;BME280;39597;51.438;7.006;2022-11-02T00:20:54;100112.31;;;11.87;75.84
46009;BME280;39597;51.438;7.006;2022-11-02T00:23:19;100115.28;;;11.82;76.51
46009;BME280;39597;51.438;7.006;2022-11-02T00:25:46;100114.72;;;11.76;76.63
46009;BME280;39597;51.438;7.006;2022-11-02T00:28:13;100107.91;;;11.82;76.14
46009;BME280;39597;51.438;7.006;2022-11-02T00:30:39;100110.97;;;11.81;76.34
46009;BME280;39597;51.438;7.006;2022-11-02T00:33:05;100112.56;;;11.82;76.66
46009;BME280;39597;51.438;7.006;2022-11-02T00:35:30;100120.41;;;11.83;76.71
46009;BME280;39597;51.438;7.006;2022-11-02T00:37:57;100106.53;;;11.88;76.36
46009;BME280;39597;51.438;7.006;2022-11-02T00:40:22;100110.63;;;11.94;75.94
46009;BME280;39597;51.438;7.006;2022-11-02T00:42:48;100109.25;;;11.88;76.21
46009;BME280;39597;51.438;7.006;2022-11-02T00:45:13;100114.81;;;11.92;76.01
46009;BME280;39597;51.438;7.006;2022-11-02T00:47:38;100112.78;;;11.89;76.23
46009;BME280;39597;51.438;7.006;2022-11-02T00:50:04;100121.75;;;11.89;76.28
46009;BME280;39597;51.438;7.006;2022-11-02T00:52:29;100117.31;;;11.97;76.17
46009;BME280;39597;51.438;7.006;2022-11-02T00:54:55;100111.63;;;11.90;76.53
46009;BME280;39597;51.438;7.006;2022-11-02T00:57:22;100109.25;;;11.88;76.72
46009;BME280;39597;51.438;7.006;2022-11-02T00:59:48;100119.03;;;11.89;76.80
46009;BME280;39597;51.438;7.006;2022-11-02T01:02:14;100118.69;;;11.91;76.84
46009;BME280;39597;51.438;7.006;2022-11-02T01:04:41;100112.88;;;11.92;76.97
46009;BME280;39597;51.438;7.006;2022-11-02T01:07:06;100120.75;;;11.94;76.85
46009;BME280;39597;51.438;7.006;2022-11-02T01:09:31;100111.53;;;11.98;76.63
46009;BME280;39597;51.438;7.006;2022-11-02T01:11:58;100110.97;;;11.93;76.90
46009;BME280;39597;51.438;7.006;2022-11-02T01:14:24;100116.75;;;11.91;76.89
46009;BME280;39597;51.438;7.006;2022-11-02T01:16:49;100118.69;;;11.91;76.99
46009;BME280;39597;51.438;7.006;2022-11-02T01:19:15;100129.03;;;11.97;76.91
46009;BME280;39597;51.438;7.006;2022-11-02T01:21:40;100113.47;;;11.98;76.79
46009;BME280;39597;51.438;7.006;2022-11-02T01:24:06;100112.66;;;11.97;76.82
46009;BME280;39597;51.438;7.006;2022-11-02T01:26:31;100121.53;;;11.94;77.08
46009;BME280;39597;51.438;7.006;2022-11-02T01:28:56;100110.97;;;11.93;77.09
46009;BME280;39597;51.438;7.006;2022-11-02T01:31:22;100109.84;;;11.94;77.40
46009;BME280;39597;51.438;7.006;2022-11-02T01:33:47;100120.75;;;11.94;77.18
46009;BME280;39597;51.438;7.006;2022-11-02T01:36:16;100111.63;;;11.90;77.58
46009;BME280;39597;51.438;7.006;2022-11-02T01:38:43;100115.06;;;11.87;77.73
46009;BME280;39597;51.438;7.006;2022-11-02T01:41:10;100107.22;;;11.85;77.72
46009;BME280;39597;51.438;7.006;2022-11-02T01:43:40;100113.00;;;11.84;78.08
46009;BME280;39597;51.438;7.006;2022-11-02T01:48:48;100109.84;;;11.82;78.13
46009;BME280;39597;51.438;7.006;2022-11-02T01:51:41;100111.53;;;11.86;78.14
46009;BME280;39597;51.438;7.006;2022-11-02T01:54:09;100110.72;;;11.86;78.17
46009;BME280;39597;51.438;7.006;2022-11-02T01:56:37;100112.09;;;11.92;78.01
46009;BME280;39597;51.438;7.006;2022-11-02T01:59:09;100109.84;;;11.94;78.08
46009;BME280;39597;51.438;7.006;2022-11-02T02:01:37;100103.34;;;11.98;77.89
46009;BME280;39597;51.438;7.006;2022-11-02T02:04:03;100117.63;;;12.08;77.72
46009;BME280;39597;51.438;7.006;2022-11-02T02:06:29;100116.38;;;12.17;77.53
46009;BME280;39597;51.438;7.006;2022-11-02T02:08:57;100112.25;;;12.23;77.18
46009;BME280;39597;51.438;7.006;2022-11-02T02:13:51;100116.34;;;12.29;76.70
46009;BME280;39597;51.438;7.006;2022-11-02T02:19:11;100127.00;;;12.34;76.45
46009;BME280;39597;51.438;7.006;2022-11-02T02:22:09;100128.59;;;12.35;76.45
46009;BME280;39597;51.438;7.006;2022-11-02T02:30:11;100123.84;;;12.32;76.49
46009;BME280;39597;51.438;7.006;2022-11-02T02:32:53;100121.56;;;12.34;76.34
46009;BME280;39597;51.438;7.006;2022-11-02T02:35:39;100120.31;;;12.32;76.49
46009;BME280;39597;51.438;7.006;2022-11-02T02:43:49;100123.03;;;12.32;76.61
46009;BME280;39597;51.438;7.006;2022-11-02T02:46:42;100108.34;;;12.37;76.36
46009;BME280;39597;51.438;7.006;2022-11-02T02:49:13;100104.03;;;12.35;76.24
46009;BME280;39597;51.438;7.006;2022-11-02T02:51:43;100105.63;;;12.37;76.13
46009;BME280;39597;51.438;7.006;2022-11-02T02:54:30;100106.75;;;12.35;76.48
46009;BME280;39597;51.438;7.006;2022-11-02T02:57:01;100112.22;;;12.35;76.22
46009;BME280;39597;51.438;7.006;2022-11-02T02:59:40;100108.09;;;12.42;76.05
46009;BME280;39597;51.438;7.006;2022-11-02T03:02:24;100118.22;;;12.41;76.35
46009;BME280;39597;51.438;7.006;2022-11-02T03:04:51;100124.03;;;12.40;76.24
46009;BME280;39597;51.438;7.006;2022-11-02T03:07:21;100124.72;;;12.37;76.35
46009;BME280;39597;51.438;7.006;2022-11-02T03:12:38;100134.31;;;12.30;76.51
46009;BME280;39597;51.438;7.006;2022-11-02T03:15:19;100128.50;;;12.32;76.27
46009;BME280;39597;51.438;7.006;2022-11-02T03:18:10;100132.72;;;12.29;76.47
46009;BME280;39597;51.438;7.006;2022-11-02T03:20:56;100133.88;;;12.28;76.25
46009;BME280;39597;51.438;7.006;2022-11-02T03:23:38;100129.06;;;12.25;76.39
46009;BME280;39597;51.438;7.006;2022-11-02T03:26:22;100138.88;;;12.26;75.72
46009;BME280;39597;51.438;7.006;2022-11-02T03:34:23;100152.53;;;12.26;75.69
46009;BME280;39597;51.438;7.006;2022-11-02T03:37:09;100154.44;;;12.26;75.63
46009;BME280;39597;51.438;7.006;2022-11-02T03:39:40;100162.75;;;12.29;75.48
46009;BME280;39597;51.438;7.006;2022-11-02T03:42:09;100170.16;;;12.29;75.31
46009;BME280;39597;51.438;7.006;2022-11-02T03:44:38;100158.44;;;12.28;75.49
46009;BME280;39597;51.438;7.006;2022-11-02T03:47:06;100168.91;;;12.26;75.47
46009;BME280;39597;51.438;7.006;2022-11-02T03:49:34;100164.91;;;12.24;75.40
46009;BME280;39597;51.438;7.006;2022-11-02T03:52:03;100169.13;;;12.21;75.37
46009;BME280;39597;51.438;7.006;2022-11-02T03:57:40;100179.59;;;12.19;75.08
46009;BME280;39597;51.438;7.006;2022-11-02T04:00:13;100171.31;;;12.16;75.34
46009;BME280;39597;51.438;7.006;2022-11-02T04:02:41;100181.44;;;12.15;75.45
46009;BME280;39597;51.438;7.006;2022-11-02T04:05:08;100178.69;;;12.15;75.49
46009;BME280;39597;51.438;7.006;2022-11-02T04:07:36;100200.53;;;12.15;75.46
46009;BME280;39597;51.438;7.006;2022-11-02T04:10:21;100193.47;;;12.14;75.49
46009;BME280;39597;51.438;7.006;2022-11-02T04:12:48;100196.56;;;12.13;75.65
46009;BME280;39597;51.438;7.006;2022-11-02T04:15:32;100195.97;;;12.07;75.88
46009;BME280;39597;51.438;7.006;2022-11-02T04:17:58;100199.41;;;12.04;75.74
46009;BME280;39597;51.438;7.006;2022-11-02T04:20:48;100194.19;;;11.99;76.15
46009;BME280;39597;51.438;7.006;2022-11-02T04:23:14;100205.09;;;11.99;76.25
46009;BME280;39597;51.438;7.006;2022-11-02T04:25:57;100207.72;;;11.95;76.44
46009;BME280;39597;51.438;7.006;2022-11-02T04:28:23;100199.88;;;11.94;76.04
46009;BME280;39597;51.438;7.006;2022-11-02T04:30:48;100205.66;;;11.92;76.03
46009;BME280;39597;51.438;7.006;2022-11-02T04:33:13;100206.00;;;11.91;75.76
46009;BME280;39597;51.438;7.006;2022-11-02T04:36:05;100212.72;;;11.93;75.77
46009;BME280;39597;51.438;7.006;2022-11-02T04:38:32;100222.50;;;11.94;75.52
46009;BME280;39597;51.438;7.006;2022-11-02T04:41:11;100211.94;;;11.93;75.42
46009;BME280;39597;51.438;7.006;2022-11-02T04:43:56;100217.59;;;11.88;75.59
46009;BME280;39597;51.438;7.006;2022-11-02T04:46:23;100219.06;;;11.85;75.75
46009;BME280;39597;51.438;7.006;2022-11-02T04:48:51;100231.66;;;11.78;76.13
46009;BME280;39597;51.438;7.006;2022-11-02T04:51:17;100226.06;;;11.74;76.46
46009;BME280;39597;51.438;7.006;2022-11-02T04:53:43;100236.97;;;11.74;76.43
46009;BME280;39597;51.438;7.006;2022-11-02T04:56:08;100243.91;;;11.71;76.69
46009;BME280;39597;51.438;7.006;2022-11-02T04:58:34;100252.09;;;11.71;76.65
46009;BME280;39597;51.438;7.006;2022-11-02T05:01:12;100240.50;;;11.74;76.33
46009;BME280;39597;51.438;7.006;2022-11-02T05:03:38;100242.66;;;11.69;76.49
46009;BME280;39597;51.438;7.006;2022-11-02T05:06:04;100254.03;;;11.71;76.22
46009;BME280;39597;51.438;7.006;2022-11-02T05:08:30;100238.91;;;11.73;76.20
46009;BME280;39597;51.438;7.006;2022-11-02T05:10:56;100252.22;;;11.75;75.89
46009;BME280;39597;51.438;7.006;2022-11-02T05:13:23;100246.75;;;11.75;75.75
46009;BME280;39597;51.438;7.006;2022-11-02T05:15:49;100250.97;;;11.72;75.75
46009;BME280;39597;51.438;7.006;2022-11-02T05:18:14;100260.16;;;11.68;76.08
46009;BME280;39597;51.438;7.006;2022-11-02T05:20:39;100248.00;;;11.65;76.18
46009;BME280;39597;51.438;7.006;2022-11-02T05:23:05;100262.09;;;11.67;76.22
46009;BME280;39597;51.438;7.006;2022-11-02T05:25:31;100264.81;;;11.67;76.11
46009;BME280;39597;51.438;7.006;2022-11-02T05:27:56;100267.56;;;11.67;76.40
46009;BME280;39597;51.438;7.006;2022-11-02T05:30:21;100268.69;;;11.66;76.51
46009;BME280;39597;51.438;7.006;2022-11-02T05:32:48;100269.94;;;11.69;76.58
46009;BME280;39597;51.438;7.006;2022-11-02T05:35:14;100266.88;;;11.70;76.28
46009;BME280;39597;51.438;7.006;2022-11-02T05:37:39;100262.09;;;11.67;76.20
46009;BME280;39597;51.438;7.006;2022-11-02T05:40:05;100260.50;;;11.66;76.30
46009;BME280;39597;51.438;7.006;2022-11-02T05:42:33;100270.63;;;11.66;76.13
46009;BME280;39597;51.438;7.006;2022-11-02T05:44:58;100268.69;;;11.66;75.97
46009;BME280;39597;51.438;7.006;2022-11-02T05:47:24;100271.31;;;11.63;76.22
46009;BME280;39597;51.438;7.006;2022-11-02T05:49:49;100267.78;;;11.62;76.09
46009;BME280;39597;51.438;7.006;2022-11-02T05:52:14;100284.47;;;11.61;76.36
46009;BME280;39597;51.438;7.006;2022-11-02T05:54:39;100288.19;;;11.56;76.38
46009;BME280;39597;51.438;7.006;2022-11-02T05:57:05;100287.06;;;11.57;76.38
46009;BME280;39597;51.438;7.006;2022-11-02T05:59:30;100297.19;;;11.57;76.46
46009;BME280;39597;51.438;7.006;2022-11-02T06:01:56;100299.56;;;11.58;76.53
46009;BME280;39597;51.438;7.006;2022-11-02T06:04:21;100284.09;;;11.50;76.61
46009;BME280;39597;51.438;7.006;2022-11-02T06:06:46;100315.91;;;11.46;76.58
46009;BME280;39597;51.438;7.006;2022-11-02T06:09:12;100326.03;;;11.45;76.71
46009;BME280;39597;51.438;7.006;2022-11-02T06:11:37;100313.84;;;11.43;76.93
46009;BME280;39597;51.438;7.006;2022-11-02T06:14:02;100317.69;;;11.42;77.05
46009;BME280;39597;51.438;7.006;2022-11-02T06:16:28;100318.81;;;11.41;77.18
46009;BME280;39597;51.438;7.006;2022-11-02T06:18:53;100328.81;;;11.37;76.90
46009;BME280;39597;51.438;7.006;2022-11-02T06:21:19;100330.63;;;11.33;76.97
46009;BME280;39597;51.438;7.006;2022-11-02T06:23:47;100334.94;;;11.34;77.10
46009;BME280;39597;51.438;7.006;2022-11-02T06:26:13;100339.00;;;11.28;77.41
46009;BME280;39597;51.438;7.006;2022-11-02T06:28:39;100349.44;;;11.26;77.63
46009;BME280;39597;51.438;7.006;2022-11-02T06:31:04;100354.41;;;11.24;77.59
46009;BME280;39597;51.438;7.006;2022-11-02T06:33:31;100354.91;;;11.26;77.39
46009;BME280;39597;51.438;7.006;2022-11-02T06:35:56;100363.88;;;11.26;77.38
46009;BME280;39597;51.438;7.006;2022-11-02T06:38:23;100369.78;;;11.28;77.06
46009;BME280;39597;51.438;7.006;2022-11-02T06:43:20;100389.84;;;11.24;77.28
46009;BME280;39597;51.438;7.006;2022-11-02T06:45:45;100378.31;;;11.27;77.27
46009;BME280;39597;51.438;7.006;2022-11-02T06:48:11;100386.00;;;11.25;77.34
46009;BME280;39597;51.438;7.006;2022-11-02T06:50:36;100397.22;;;11.23;77.68
46009;BME280;39597;51.438;7.006;2022-11-02T06:53:02;100395.63;;;11.22;77.65
46009;BME280;39597;51.438;7.006;2022-11-02T06:55:27;100396.09;;;11.24;77.67
46009;BME280;39597;51.438;7.006;2022-11-02T06:57:53;100398.34;;;11.22;77.71
46009;BME280;39597;51.438;7.006;2022-11-02T07:00:20;100407.78;;;11.25;77.61
46009;BME280;39597;51.438;7.006;2022-11-02T07:02:46;100409.72;;;11.24;77.70
46009;BME280;39597;51.438;7.006;2022-11-02T07:05:23;100413.59;;;11.23;77.52
46009;BME280;39597;51.438;7.006;2022-11-02T07:07:51;100419.38;;;11.22;77.60
46009;BME280;39597;51.438;7.006;2022-11-02T07:10:20;100423.50;;;11.28;77.39
46009;BME280;39597;51.438;7.006;2022-11-02T07:12:45;100425.78;;;11.26;77.40
46009;BME280;39597;51.438;7.006;2022-11-02T07:15:10;100436.69;;;11.26;77.39
46009;BME280;39597;51.438;7.006;2022-11-02T07:17:39;100447.59;;;11.26;77.38
46009;BME280;39597;51.438;7.006;2022-11-02T07:20:06;100443.06;;;11.30;77.14
46009;BME280;39597;51.438;7.006;2022-11-02T07:22:33;100453.97;;;11.30;77.08
46009;BME280;39597;51.438;7.006;2022-11-02T07:24:58;100456.34;;;11.31;77.08
46009;BME280;39597;51.438;7.006;2022-11-02T07:27:23;100465.53;;;11.27;77.47
46009;BME280;39597;51.438;7.006;2022-11-02T07:29:49;100475.44;;;11.31;77.45
46009;BME280;39597;51.438;7.006;2022-11-02T07:32:15;100473.97;;;11.34;77.51
46009;BME280;39597;51.438;7.006;2022-11-02T07:34:42;100483.63;;;11.31;77.24
46009;BME280;39597;51.438;7.006;2022-11-02T07:37:07;100478.63;;;11.33;77.46
46009;BME280;39597;51.438;7.006;2022-11-02T07:39:32;100482.16;;;11.34;77.50
46009;BME280;39597;51.438;7.006;2022-11-02T07:41:58;100486.94;;;11.37;77.34
46009;BME280;39597;51.438;7.006;2022-11-02T07:44:23;100484.09;;;11.33;77.08
46009;BME280;39597;51.438;7.006;2022-11-02T07:46:48;100480.56;;;11.33;77.34
46009;BME280;39597;51.438;7.006;2022-11-02T07:49:14;100505.44;;;11.31;76.60
46009;BME280;39597;51.438;7.006;2022-11-02T07:51:39;100498.50;;;11.34;76.84
46009;BME280;39597;51.438;7.006;2022-11-02T07:54:04;100510.22;;;11.34;76.81
46009;BME280;39597;51.438;7.006;2022-11-02T07:56:30;100512.16;;;11.34;76.82
46009;BME280;39597;51.438;7.006;2022-11-02T07:58:55;100517.25;;;11.35;76.50
46009;BME280;39597;51.438;7.006;2022-11-02T08:01:22;100518.53;;;11.38;76.49
46009;BME280;39597;51.438;7.006;2022-11-02T08:03:48;100529.09;;;11.39;76.59
46009;BME280;39597;51.438;7.006;2022-11-02T08:06:15;100521.88;;;11.43;75.84
46009;BME280;39597;51.438;7.006;2022-11-02T08:08:40;100532.25;;;11.50;75.70
46009;BME280;39597;51.438;7.006;2022-11-02T08:11:07;100531.13;;;11.51;75.83
46009;BME280;39597;51.438;7.006;2022-11-02T08:13:33;100535.50;;;11.43;75.83
46009;BME280;39597;51.438;7.006;2022-11-02T08:16:06;100528.06;;;11.53;75.15
46009;BME280;39597;51.438;7.006;2022-11-02T08:18:31;100532.72;;;11.52;75.31
46009;BME280;39597;51.438;7.006;2022-11-02T08:20:58;100532.50;;;11.57;75.14
46009;BME280;39597;51.438;7.006;2022-11-02T08:23:25;100529.41;;;11.67;74.61
46009;BME280;39597;51.438;7.006;2022-11-02T08:25:51;100540.13;;;11.72;74.34
46009;BME280;39597;51.438;7.006;2022-11-02T08:28:22;100546.03;;;11.74;74.06
46009;BME280;39597;51.438;7.006;2022-11-02T08:30:48;100546.53;;;11.77;74.09
46009;BME280;39597;51.438;7.006;2022-11-02T08:33:16;100541.56;;;11.79;73.88
46009;BME280;39597;51.438;7.006;2022-11-02T08:35:44;100537.06;;;11.74;74.08
46009;BME280;39597;51.438;7.006;2022-11-02T08:38:10;100544.09;;;11.75;74.16
46009;BME280;39597;51.438;7.006;2022-11-02T08:40:37;100545.41;;;11.78;73.77
46009;BME280;39597;51.438;7.006;2022-11-02T08:43:11;100562.38;;;11.83;73.80
46009;BME280;39597;51.438;7.006;2022-11-02T08:45:39;100571.63;;;11.91;73.74
46009;BME280;39597;51.438;7.006;2022-11-02T08:48:05;100560.91;;;11.86;73.02
46009;BME280;39597;51.438;7.006;2022-11-02T08:50:33;100557.41;;;11.85;73.14
46009;BME280;39597;51.438;7.006;2022-11-02T08:52:59;100571.63;;;11.91;73.00
46009;BME280;39597;51.438;7.006;2022-11-02T08:55:30;100569.84;;;11.95;72.66
46009;BME280;39597;51.438;7.006;2022-11-02T08:57:57;100572.16;;;12.05;73.01
46009;BME280;39597;51.438;7.006;2022-11-02T09:00:27;100581.28;;;12.09;72.76
46009;BME280;39597;51.438;7.006;2022-11-02T09:03:10;100577.09;;;12.12;72.61
46009;BME280;39597;51.438;7.006;2022-11-02T09:05:46;100583.53;;;12.07;72.65
46009;BME280;39597;51.438;7.006;2022-11-02T09:08:17;100591.59;;;12.03;72.63
46009;BME280;39597;51.438;7.006;2022-11-02T09:10:44;100579.56;;;12.04;72.81
46009;BME280;39597;51.438;7.006;2022-11-02T09:13:11;100589.63;;;12.13;72.71
46009;BME280;39597;51.438;7.006;2022-11-02T09:15:37;100602.00;;;12.10;72.49
46009;BME280;39597;51.438;7.006;2022-11-02T09:18:04;100598.66;;;12.04;73.15
46009;BME280;39597;51.438;7.006;2022-11-02T09:20:30;100601.59;;;12.20;72.67
46009;BME280;39597;51.438;7.006;2022-11-02T09:22:57;100609.84;;;12.32;72.68
46009;BME280;39597;51.438;7.006;2022-11-02T09:25:22;100608.78;;;12.25;72.05
46009;BME280;39597;51.438;7.006;2022-11-02T09:27:54;100610.19;;;12.31;72.15
46009;BME280;39597;51.438;7.006;2022-11-02T09:30:29;100606.78;;;12.34;71.90
46009;BME280;39597;51.438;7.006;2022-11-02T09:32:59;100620.09;;;12.35;71.61
46009;BME280;39597;51.438;7.006;2022-11-02T09:35:28;100617.50;;;12.39;71.00
46009;BME280;39597;51.438;7.006;2022-11-02T09:37:54;100630.34;;;12.39;70.93
46009;BME280;39597;51.438;7.006;2022-11-02T09:40:22;100633.84;;;12.27;70.44
46009;BME280;39597;51.438;7.006;2022-11-02T09:45:16;100628.34;;;12.48;69.96
46009;BME280;39597;51.438;7.006;2022-11-02T09:48:19;100637.25;;;12.57;69.90
46009;BME280;39597;51.438;7.006;2022-11-02T09:51:15;100636.09;;;12.46;70.91
46009;BME280;39597;51.438;7.006;2022-11-02T09:53:55;100637.00;;;12.50;70.58
46009;BME280;39597;51.438;7.006;2022-11-02T09:56:24;100635.41;;;12.49;70.51
46009;BME280;39597;51.438;7.006;2022-11-02T10:07:08;100632.53;;;12.66;70.04
46009;BME280;39597;51.438;7.006;2022-11-02T10:09:57;100624.00;;;12.68;69.73
46009;BME280;39597;51.438;7.006;2022-11-02T10:12:49;100632.53;;;12.66;69.41
46009;BME280;39597;51.438;7.006;2022-11-02T10:15:36;100637.06;;;12.62;69.78
46009;BME280;39597;51.438;7.006;2022-11-02T10:18:03;100645.19;;;12.71;69.62
46009;BME280;39597;51.438;7.006;2022-11-02T10:20:33;100654.28;;;12.75;69.21
46009;BME280;39597;51.438;7.006;2022-11-02T10:23:06;100649.97;;;12.74;68.58
46009;BME280;39597;51.438;7.006;2022-11-02T10:25:33;100640.25;;;12.64;68.05
46009;BME280;39597;51.438;7.006;2022-11-02T10:28:08;100642.44;;;12.71;66.84
46009;BME280;39597;51.438;7.006;2022-11-02T10:30:35;100641.53;;;12.67;66.96
46009;BME280;39597;51.438;7.006;2022-11-02T10:33:03;100647.06;;;12.91;66.78
46009;BME280;39597;51.438;7.006;2022-11-02T10:38:53;100659.75;;;12.95;66.57
46009;BME280;39597;51.438;7.006;2022-11-02T10:44:27;100645.09;;;13.12;64.54
46009;BME280;39597;51.438;7.006;2022-11-02T10:52:37;100654.25;;;13.29;63.51
46009;BME280;39597;51.438;7.006;2022-11-02T10:55:08;100655.72;;;13.26;62.50
46009;BME280;39597;51.438;7.006;2022-11-02T10:57:38;100651.38;;;13.25;62.17
46009;BME280;39597;51.438;7.006;2022-11-02T11:00:28;100665.28;;;13.20;61.60
46009;BME280;39597;51.438;7.006;2022-11-02T11:03:02;100657.53;;;13.22;60.21
46009;BME280;39597;51.438;7.006;2022-11-02T11:05:30;100656.47;;;13.14;61.08
46009;BME280;39597;51.438;7.006;2022-11-02T11:07:58;100654.25;;;13.29;60.70
46009;BME280;39597;51.438;7.006;2022-11-02T11:10:24;100660.97;;;13.31;60.52
46009;BME280;39597;51.438;7.006;2022-11-02T11:12:49;100658.47;;;13.38;60.72
46009;BME280;39597;51.438;7.006;2022-11-02T11:15:28;100659.28;;;13.51;60.07
46009;BME280;39597;51.438;7.006;2022-11-02T11:17:55;100674.00;;;13.46;59.57
46009;BME280;39597;51.438;7.006;2022-11-02T11:20:35;100669.66;;;13.33;59.17
46009;BME280;39597;51.438;7.006;2022-11-02T11:23:23;100677.38;;;13.43;59.23
46009;BME280;39597;51.438;7.006;2022-11-02T11:26:03;100678.53;;;13.42;59.31
46009;BME280;39597;51.438;7.006;2022-11-02T11:28:36;100672.94;;;13.39;60.36
46009;BME280;39597;51.438;7.006;2022-11-02T11:31:06;100674.91;;;13.50;59.82
46009;BME280;39597;51.438;7.006;2022-11-02T11:33:41;100678.47;;;13.63;58.74
46009;BME280;39597;51.438;7.006;2022-11-02T11:36:09;100677.44;;;13.68;59.14
46009;BME280;39597;51.438;7.006;2022-11-02T11:38:34;100666.84;;;13.78;56.17
46009;BME280;39597;51.438;7.006;2022-11-02T11:41:01;100678.56;;;13.79;57.52
46009;BME280;39597;51.438;7.006;2022-11-02T11:43:33;100684.94;;;13.83;58.38
46009;BME280;39597;51.438;7.006;2022-11-02T11:46:12;100671.94;;;13.92;58.16
46009;BME280;39597;51.438;7.006;2022-11-02T11:48:45;100668.63;;;13.99;57.99
46009;BME280;39597;51.438;7.006;2022-11-02T11:56:44;100665.53;;;14.12;57.19
46009;BME280;39597;51.438;7.006;2022-11-02T12:00:23;100677.63;;;14.11;57.11
46009;BME280;39597;51.438;7.006;2022-11-02T12:02:19;100670.78;;;14.18;56.80
46009;BME280;39597;51.438;7.006;2022-11-02T12:04:47;100673.97;;;14.20;55.80
46009;BME280;39597;51.438;7.006;2022-11-02T12:12:58;100660.25;;;14.20;56.81
46009;BME280;39597;51.438;7.006;2022-11-02T12:21:28;100645.19;;;14.26;55.64
46009;BME280;39597;51.438;7.006;2022-11-02T12:24:04;100640.50;;;14.26;56.47
46009;BME280;39597;51.438;7.006;2022-11-02T12:43:37;100645.50;;;13.84;58.38
46009;BME280;39597;51.438;7.006;2022-11-02T12:46:13;100650.25;;;13.99;58.46
46009;BME280;39597;51.438;7.006;2022-11-02T12:51:23;100646.56;;;14.20;58.09
46009;BME280;39597;51.438;7.006;2022-11-02T12:53:56;100648.41;;;14.15;58.46
46009;BME280;39597;51.438;7.006;2022-11-02T12:56:30;100649.56;;;14.02;58.67
46009;BME280;39597;51.438;7.006;2022-11-02T12:58:59;100658.94;;;13.77;59.43
46009;BME280;39597;51.438;7.006;2022-11-02T13:01:29;100655.19;;;13.69;59.42
46009;BME280;39597;51.438;7.006;2022-11-02T13:06:38;100658.47;;;13.75;59.71
46009;BME280;39597;51.438;7.006;2022-11-02T13:09:53;100656.19;;;13.77;59.24
46009;BME280;39597;51.438;7.006;2022-11-02T13:12:09;100650.97;;;13.84;58.58
46009;BME280;39597;51.438;7.006;2022-11-02T13:14:41;100648.22;;;13.84;58.58
46009;BME280;39597;51.438;7.006;2022-11-02T13:17:17;100643.44;;;13.81;59.00
46009;BME280;39597;51.438;7.006;2022-11-02T13:19:45;100650.72;;;13.77;59.19
46009;BME280;39597;51.438;7.006;2022-11-02T13:22:13;100645.94;;;13.74;58.64
46009;BME280;39597;51.438;7.006;2022-11-02T13:24:44;100637.72;;;13.74;58.65
46009;BME280;39597;51.438;7.006;2022-11-02T13:27:33;100625.88;;;13.70;58.92
46009;BME280;39597;51.438;7.006;2022-11-02T13:30:05;100633.19;;;13.66;59.25
46009;BME280;39597;51.438;7.006;2022-11-02T13:32:48;100629.06;;;13.72;59.38
46009;BME280;39597;51.438;7.006;2022-11-02T13:35:34;100630.22;;;13.59;59.33
46009;BME280;39597;51.438;7.006;2022-11-02T13:47:19;100614.50;;;13.68;60.38
46009;BME280;39597;51.438;7.006;2022-11-02T13:49:47;100619.97;;;13.68;60.79
46009;BME280;39597;51.438;7.006;2022-11-02T13:52:16;100617.47;;;13.63;61.39
46009;BME280;39597;51.438;7.006;2022-11-02T13:54:47;100617.91;;;13.65;61.48
46009;BME280;39597;51.438;7.006;2022-11-02T13:57:40;100620.66;;;13.65;61.97
46009;BME280;39597;51.438;7.006;2022-11-02T14:00:29;100637.06;;;13.65;61.62
46009;BME280;39597;51.438;7.006;2022-11-02T14:06:19;100629.28;;;13.42;62.51
46009;BME280;39597;51.438;7.006;2022-11-02T14:24:51;100611.38;;;13.20;64.59
46009;BME280;39597;51.438;7.006;2022-11-02T14:49:00;100585.31;;;13.35;63.23
46009;BME280;39597;51.438;7.006;2022-11-02T14:51:32;100590.53;;;13.40;63.03
46009;BME280;39597;51.438;7.006;2022-11-02T14:54:13;100591.69;;;13.39;62.92
46009;BME280;39597;51.438;7.006;2022-11-02T14:57:14;100581.88;;;13.38;63.15
46009;BME280;39597;51.438;7.006;2022-11-02T14:59:49;100588.50;;;13.37;63.29
46009;BME280;39597;51.438;7.006;2022-11-02T15:02:23;100585.31;;;13.35;63.30
46009;BME280;39597;51.438;7.006;2022-11-02T15:04:54;100569.25;;;13.34;63.21
46009;BME280;39597;51.438;7.006;2022-11-02T15:07:50;100579.94;;;13.39;62.86
46009;BME280;39597;51.438;7.006;2022-11-02T15:12:48;100566.41;;;13.30;63.58
46009;BME280;39597;51.438;7.006;2022-11-02T15:15:29;100583.94;;;13.29;63.27
46009;BME280;39597;51.438;7.006;2022-11-02T15:23:23;100573.66;;;13.14;63.67
46009;BME280;39597;51.438;7.006;2022-11-02T15:25:52;100571.91;;;13.09;64.15
46009;BME280;39597;51.438;7.006;2022-11-02T15:28:22;100567.81;;;13.03;64.24
46009;BME280;39597;51.438;7.006;2022-11-02T15:30:50;100568.41;;;12.97;64.31
46009;BME280;39597;51.438;7.006;2022-11-02T15:33:35;100568.41;;;12.97;64.73
46009;BME280;39597;51.438;7.006;2022-11-02T15:36:01;100566.34;;;12.93;64.88
46009;BME280;39597;51.438;7.006;2022-11-02T15:38:28;100560.41;;;12.91;64.92
46009;BME280;39597;51.438;7.006;2022-11-02T15:44:03;100552.19;;;12.79;65.39
46009;BME280;39597;51.438;7.006;2022-11-02T15:52:07;100555.91;;;12.75;65.21